createdAt,value
2022-08-05T00:23:46.165Z,99.90
2022-08-05T00:41:55.243Z,99.90
2022-08-05T00:49:44.609Z,99.90
2022-08-05T01:17:44.092Z,99.90
2022-08-05T01:33:35.348Z,99.90
2022-08-05T01:51:18.568Z,99.90
2022-08-05T01:53:57.886Z,99.90
2022-08-05T01:58:12.358Z,99.90
2022-08-05T02:01:47.909Z,99.90
2022-08-05T02:06:45.181Z,99.90
2022-08-05T02:14:43.319Z,99.90
2022-08-05T02:18:14.569Z,99.90
2022-08-05T02:20:20.797Z,99.90
2022-08-05T02:22:58.486Z,99.90
2022-08-05T02:25:33.040Z,99.90
2022-08-05T02:28:08.994Z,99.90
2022-08-05T02:52:02.634Z,99.90
2022-08-05T03:28:00.649Z,99.90
2022-08-05T03:30:34.072Z,99.90
2022-08-05T03:48:28.973Z,99.90
2022-08-05T03:52:37.822Z,99.90
2022-08-05T03:55:53.958Z,99.90
2022-08-05T04:06:51.082Z,99.90
2022-08-05T04:11:56.698Z,99.90
2022-08-05T04:24:52.419Z,99.90
2022-08-05T04:48:07.471Z,99.90
2022-08-05T05:06:39.418Z,99.90
2022-08-05T05:27:41.217Z,99.90
2022-08-05T05:32:57.038Z,99.90
2022-08-05T05:38:09.466Z,99.90
2022-08-05T05:48:34.771Z,99.90
2022-08-05T05:56:26.074Z,99.90
2022-08-05T06:04:11.716Z,98.20
2022-08-05T06:06:41.747Z,98.20
2022-08-05T06:14:33.377Z,93.70
2022-08-05T06:30:19.964Z,80.60
2022-08-05T06:40:44.274Z,77.20
2022-08-05T06:54:03.260Z,75.00
2022-08-05T07:04:02.302Z,73.80
2022-08-05T07:06:30.163Z,71.60
2022-08-05T07:18:00.997Z,72.30
2022-08-05T07:30:27.292Z,72.70
2022-08-05T07:32:53.659Z,71.10
2022-08-05T07:40:39.567Z,70.10
2022-08-05T07:43:20.199Z,70.00
2022-08-05T07:45:58.102Z,69.10
2022-08-05T07:49:00.657Z,69.80
2022-08-05T07:53:59.942Z,69.30
2022-08-05T07:56:39.021Z,69.80
2022-08-05T07:59:15.902Z,66.50
2022-08-05T08:01:52.257Z,68.30
2022-08-05T08:04:38.037Z,69.20
2022-08-05T08:07:07.454Z,68.00
2022-08-05T08:09:35.070Z,66.90
2022-08-05T08:12:13.603Z,66.40
2022-08-05T08:17:16.077Z,64.80
2022-08-05T08:20:43.243Z,64.10
2022-08-05T08:22:32.306Z,65.10
2022-08-05T08:25:16.512Z,64.00
2022-08-05T08:27:51.097Z,63.00
2022-08-05T08:30:32.803Z,63.30
2022-08-05T08:33:08.990Z,62.60
2022-08-05T08:35:53.066Z,62.10
2022-08-05T08:38:35.544Z,61.80
2022-08-05T08:41:08.306Z,62.70
2022-08-05T08:45:18.772Z,60.60
2022-08-05T08:46:28.107Z,61.70
2022-08-05T08:49:06.357Z,61.10
2022-08-05T08:52:02.900Z,60.60
2022-08-05T08:54:32.557Z,58.30
2022-08-05T08:59:33.400Z,56.60
2022-08-05T09:02:04.399Z,56.50
2022-08-05T09:04:57.843Z,56.10
2022-08-05T09:07:29.088Z,56.90
2022-08-05T09:10:07.240Z,54.60
2022-08-05T09:12:35.182Z,55.00
2022-08-05T09:15:05.753Z,53.00
2022-08-05T09:17:42.271Z,55.50
2022-08-05T09:20:11.498Z,56.80
2022-08-05T09:23:19.550Z,56.10
2022-08-05T09:26:03.326Z,55.90
2022-08-05T09:28:33.607Z,56.80
2022-08-05T09:31:22.988Z,52.80
2022-08-05T09:34:01.694Z,55.10
2022-08-05T09:36:55.805Z,53.80
2022-08-05T09:39:39.196Z,55.20
2022-08-05T09:42:13.580Z,52.70
2022-08-05T09:44:50.528Z,52.20
2022-08-05T09:47:20.881Z,54.10
2022-08-05T09:52:36.625Z,54.00
2022-08-05T09:55:57.169Z,50.80
2022-08-05T09:58:00.352Z,53.60
2022-08-05T10:00:30.634Z,53.90
2022-08-05T10:02:59.023Z,53.50
2022-08-05T10:05:28.602Z,54.00
2022-08-05T10:08:35.538Z,50.40
2022-08-05T10:10:44.163Z,50.30
2022-08-05T10:13:11.699Z,52.20
2022-08-05T10:15:42.039Z,52.30
2022-08-05T10:18:19.769Z,51.80
2022-08-05T10:20:53.279Z,52.80
2022-08-05T10:23:55.259Z,52.70
2022-08-05T10:26:14.861Z,53.90
2022-08-05T10:28:45.033Z,50.60
2022-08-05T10:32:54.346Z,52.80
2022-08-05T10:36:30.787Z,52.70
2022-08-05T10:39:10.323Z,52.00
2022-08-05T10:41:59.142Z,51.00
2022-08-05T10:44:29.438Z,50.70
2022-08-05T10:46:57.669Z,51.00
2022-08-05T10:49:27.122Z,51.50
2022-08-05T10:52:05.225Z,52.20
2022-08-05T10:55:04.052Z,50.40
2022-08-05T10:57:33.933Z,51.60
2022-08-05T11:00:23.040Z,50.50
2022-08-05T11:03:24.501Z,50.10
2022-08-05T11:06:15.769Z,50.60
2022-08-05T11:09:18.488Z,50.60
2022-08-05T11:11:52.428Z,52.10
2022-08-05T11:17:59.261Z,49.20
2022-08-05T11:20:39.010Z,49.80
2022-08-05T11:24:04.560Z,50.90
2022-08-05T11:26:32.342Z,48.10
2022-08-05T11:29:13.129Z,49.00
2022-08-05T11:34:57.461Z,51.10
2022-08-05T11:38:28.240Z,49.40
2022-08-05T11:41:35.040Z,48.70
2022-08-05T11:44:06.418Z,49.50
2022-08-05T11:47:09.403Z,49.70
2022-08-05T11:49:25.168Z,50.70
2022-08-05T11:54:34.518Z,49.60
2022-08-05T11:59:50.781Z,48.60
2022-08-05T12:02:29.726Z,47.40
2022-08-05T12:05:07.306Z,48.70
2022-08-05T12:08:03.226Z,51.70
2022-08-05T12:10:42.997Z,49.20
2022-08-05T12:13:27.713Z,47.40
2022-08-05T12:16:15.500Z,47.50
2022-08-05T12:18:52.715Z,50.20
2022-08-05T12:21:30.687Z,48.00
2022-08-05T12:24:05.048Z,48.00
2022-08-05T12:29:09.377Z,48.80
2022-08-05T12:31:44.903Z,50.00
2022-08-05T12:34:21.710Z,48.30
2022-08-05T12:39:21.471Z,46.70
2022-08-05T12:44:21.667Z,45.80
2022-08-05T12:47:00.027Z,43.80
2022-08-05T12:50:03.970Z,43.10
2022-08-05T12:52:32.397Z,45.50
2022-08-05T12:55:15.732Z,44.90
2022-08-05T12:58:39.207Z,45.80
2022-08-05T13:02:04.263Z,45.50
2022-08-05T13:03:20.670Z,46.80
2022-08-05T13:05:50.102Z,47.80
2022-08-05T13:08:20.197Z,47.30
2022-08-05T13:10:50.585Z,47.60
2022-08-05T13:14:05.273Z,48.40
2022-08-05T13:16:15.532Z,49.10
2022-08-05T13:18:57.674Z,47.10
2022-08-05T13:21:28.563Z,46.40
2022-08-05T13:24:08.702Z,44.40
2022-08-05T13:29:05.179Z,47.10
2022-08-05T13:32:03.473Z,48.90
2022-08-05T13:34:24.148Z,44.20
2022-08-05T13:36:54.126Z,45.60
2022-08-05T13:39:24.477Z,46.40
2022-08-05T13:42:14.746Z,46.60
2022-08-05T13:44:45.869Z,47.20
2022-08-05T13:47:35.932Z,46.00
2022-08-05T13:50:06.576Z,47.50
2022-08-05T13:52:36.648Z,45.00
2022-08-05T13:55:07.986Z,44.30
2022-08-05T13:57:50.652Z,47.00
2022-08-05T14:00:26.825Z,44.60
2022-08-05T14:02:56.318Z,46.50
2022-08-05T14:05:48.011Z,45.10
2022-08-05T14:08:20.555Z,48.50
2022-08-05T14:10:54.223Z,44.80
2022-08-05T14:16:08.274Z,45.60
2022-08-05T14:18:38.127Z,45.40
2022-08-05T14:22:06.997Z,47.10
2022-08-05T14:26:35.825Z,47.80
2022-08-05T14:29:15.985Z,48.30
2022-08-05T14:32:03.918Z,46.50
2022-08-05T14:34:35.589Z,46.30
2022-08-05T14:37:03.602Z,45.20
2022-08-05T14:39:32.127Z,46.50
2022-08-05T14:42:21.099Z,43.90
2022-08-05T14:44:48.881Z,43.50
2022-08-05T14:47:16.007Z,47.50
2022-08-05T14:52:51.851Z,47.30
2022-08-05T14:55:13.908Z,47.80
2022-08-05T14:57:56.255Z,45.60
2022-08-05T15:00:27.734Z,45.00
2022-08-05T15:02:55.355Z,46.20
2022-08-05T15:05:22.470Z,46.20
2022-08-05T15:08:05.698Z,47.00
2022-08-05T15:13:14.012Z,45.70
2022-08-05T15:15:55.609Z,47.70
2022-08-05T15:18:23.450Z,47.70
2022-08-05T15:23:18.159Z,49.00
2022-08-05T15:25:52.193Z,49.40
2022-08-05T15:28:27.279Z,50.30
2022-08-05T15:30:55.150Z,51.50
2022-08-05T15:34:04.521Z,54.00
2022-08-05T15:36:17.214Z,56.90
2022-08-05T15:40:41.650Z,57.30
2022-08-05T15:41:56.123Z,55.70
2022-08-05T15:44:25.943Z,55.30
2022-08-05T15:49:40.868Z,57.90
2022-08-05T15:52:13.375Z,59.00
2022-08-05T15:54:42.952Z,59.60
2022-08-05T15:57:10.073Z,62.10
2022-08-05T15:59:38.226Z,62.40
2022-08-05T16:02:09.526Z,63.00
2022-08-05T16:04:42.512Z,63.50
2022-08-05T16:07:10.591Z,63.50
2022-08-05T16:09:41.765Z,64.70
2022-08-05T16:12:09.302Z,64.00
2022-08-05T16:14:38.390Z,64.10
2022-08-05T16:17:05.401Z,66.00
2022-08-05T16:20:05.657Z,66.80
2022-08-05T16:22:27.598Z,70.20
2022-08-05T16:25:00.752Z,73.40
2022-08-05T16:27:46.923Z,73.70
2022-08-05T16:30:26.060Z,74.50
2022-08-05T16:32:54.161Z,75.80
2022-08-05T16:35:28.313Z,76.30
2022-08-05T16:38:02.012Z,78.60
2022-08-05T16:40:51.711Z,77.80
2022-08-05T16:43:23.736Z,77.80
2022-08-05T16:46:06.702Z,78.10
2022-08-05T16:48:39.249Z,77.20
2022-08-05T16:51:08.939Z,78.60
2022-08-05T16:54:04.808Z,80.40
2022-08-05T16:56:27.813Z,82.70
2022-08-05T16:58:55.361Z,82.30
2022-08-05T17:03:52.014Z,82.10
2022-08-05T17:06:19.990Z,86.00
2022-08-05T17:08:53.611Z,85.90
2022-08-05T17:11:23.343Z,85.00
2022-08-05T17:16:37.821Z,87.60
2022-08-05T17:21:39.443Z,87.70
2022-08-05T17:24:30.327Z,87.50
2022-08-05T17:26:56.993Z,89.20
2022-08-05T17:29:33.772Z,89.20
2022-08-05T17:32:11.623Z,90.40
2022-08-05T17:37:40.824Z,90.90
2022-08-05T17:40:00.805Z,90.60
2022-08-05T17:42:31.963Z,91.00
2022-08-05T17:45:00.123Z,90.90
2022-08-05T17:47:37.477Z,91.10
2022-08-05T17:50:10.678Z,92.10
2022-08-05T17:52:53.317Z,92.70
2022-08-05T18:00:30.036Z,92.20
2022-08-05T18:02:57.311Z,92.10
2022-08-05T18:08:03.528Z,93.50
2022-08-05T18:15:36.198Z,94.50
2022-08-05T18:25:44.949Z,94.60
2022-08-05T18:28:16.182Z,94.90
2022-08-05T18:38:35.995Z,94.70
2022-08-05T18:59:50.721Z,97.70
2022-08-05T19:28:31.175Z,99.00
2022-08-05T19:46:29.374Z,99.30
2022-08-05T19:49:03.614Z,99.30
2022-08-05T21:17:05.396Z,99.90
2022-08-05T21:27:25.069Z,99.90
2022-08-05T21:29:58.528Z,99.90
2022-08-05T22:16:32.093Z,99.90
2022-08-05T22:32:17.201Z,99.90
2022-08-05T22:52:46.300Z,99.90
2022-08-05T23:51:53.901Z,99.90
